Time;durP1;ratioP1;P1;durP2;ratioP2;P2;SDS_P1;SDS_P2;PMS_P1;PMS_P2;Temp;Humidity;BMP_temperature;BMP_pressure;BME280_temperature;BME280_humidity;BME280_pressure;Samples;Min_cycle;Max_cycle;Signal;HPM_P1;HPM_P2
2023/07/10 00:00:22;;;;;;;25.38;18.13;;;;;;;;;;5038403;28;20041;-60
2023/07/10 00:02:49;;;;;;;23.00;17.10;;;;;;;;;;5050006;28;20044;-60
2023/07/10 00:05:16;;;;;;;25.92;17.70;;;;;;;;;;5047288;28;20032;-59
2023/07/10 00:07:41;;;;;;;23.40;17.95;;;;;;;;;;5032601;28;20034;-60
2023/07/10 00:10:15;;;;;;;24.00;17.88;;;;;;;;;;5033052;28;20025;-60
2023/07/10 00:12:42;;;;;;;22.98;17.35;;;;;;;;;;5039019;28;20028;-60
2023/07/10 00:15:20;;;;;;;22.52;17.10;;;;;;;;;;5037404;28;20111;-60
2023/07/10 00:17:51;;;;;;;23.55;16.83;;;;;;;;;;5042885;28;20037;-60
2023/07/10 00:20:19;;;;;;;20.90;16.80;;;;;;;;;;5044199;28;20115;-60
2023/07/10 00:22:45;;;;;;;22.20;16.85;;;;;;;;;;5051398;28;20024;-60
2023/07/10 00:25:15;;;;;;;25.15;17.52;;;;;;;;;;5050595;28;20031;-60
2023/07/10 00:27:42;;;;;;;22.33;16.77;;;;;;;;;;5036850;28;20052;-60
2023/07/10 00:30:20;;;;;;;19.13;16.25;;;;;;;;;;5046698;28;20033;-60
2023/07/10 00:32:51;;;;;;;23.35;15.60;;;;;;;;;;5034888;28;20099;-60
2023/07/10 00:35:17;;;;;;;22.02;14.95;;;;;;;;;;5042186;28;20037;-61
2023/07/10 00:37:49;;;;;;;19.63;14.95;;;;;;;;;;5044301;28;20037;-60
2023/07/10 00:40:24;;;;;;;20.33;15.98;;;;;;;;;;5033235;28;20044;-60
2023/07/10 00:42:55;;;;;;;23.60;16.27;;;;;;;;;;5031795;28;20054;-60
2023/07/10 00:45:21;;;;;;;23.55;16.15;;;;;;;;;;5031210;28;20041;-60
2023/07/10 00:48:28;;;;;;;19.73;15.50;;;;;;;;;;5034151;28;20068;-60
2023/07/10 00:50:57;;;;;;;23.73;15.18;;;;;;;;;;5031140;28;20507;-60
2023/07/10 00:53:27;;;;;;;23.30;14.88;;;;;;;;;;5031437;28;20095;-60
2023/07/10 00:55:55;;;;;;;23.27;15.17;;;;;;;;;;5035228;28;20037;-60
2023/07/10 00:58:39;;;;;;;20.83;15.68;;;;;;;;;;5050236;28;20079;-61
2023/07/10 01:01:13;;;;;;;22.15;16.00;;;;;;;;;;5041757;28;20441;-64
2023/07/10 01:03:40;;;;;;;23.42;16.25;;;;;;;;;;5032102;28;20331;-59
2023/07/10 01:06:20;;;;;;;21.00;15.25;;;;;;;;;;5031223;28;20036;-60
2023/07/10 01:08:54;;;;;;;24.45;16.10;;;;;;;;;;5031823;28;20039;-60
2023/07/10 01:11:20;;;;;;;20.60;15.20;;;;;;;;;;5030286;28;20339;-60
2023/07/10 01:13:49;;;;;;;23.45;16.15;;;;;;;;;;5031928;28;20033;-60
2023/07/10 01:16:14;;;;;;;22.67;16.35;;;;;;;;;;5032659;28;20025;-60
2023/07/10 01:18:41;;;;;;;22.33;16.50;;;;;;;;;;5038906;28;20032;-60
2023/07/10 01:21:27;;;;;;;19.80;15.60;;;;;;;;;;5050544;28;20142;-63
2023/07/10 01:23:54;;;;;;;24.35;16.38;;;;;;;;;;5062320;28;20036;-59
2023/07/10 01:26:19;;;;;;;23.15;15.60;;;;;;;;;;5045302;28;20029;-60
2023/07/10 01:28:45;;;;;;;20.60;15.63;;;;;;;;;;5042517;28;20386;-60
2023/07/10 01:31:13;;;;;;;26.02;15.90;;;;;;;;;;5033760;28;20025;-60
2023/07/10 01:33:46;;;;;;;22.60;16.05;;;;;;;;;;5037109;28;20032;-59
2023/07/10 01:36:15;;;;;;;22.85;16.17;;;;;;;;;;5033012;28;20112;-59
2023/07/10 01:38:49;;;;;;;21.15;15.30;;;;;;;;;;5030756;28;20045;-59
2023/07/10 01:41:23;;;;;;;21.00;15.18;;;;;;;;;;5029910;28;20025;-59
2023/07/10 01:43:49;;;;;;;22.17;16.10;;;;;;;;;;5031296;28;20060;-59
2023/07/10 01:46:17;;;;;;;21.15;15.93;;;;;;;;;;5030601;28;20037;-59
2023/07/10 01:48:42;;;;;;;22.13;15.70;;;;;;;;;;5049385;28;20409;-59
2023/07/10 01:51:08;;;;;;;21.73;15.20;;;;;;;;;;5041008;28;20055;-59
2023/07/10 01:53:34;;;;;;;24.63;16.02;;;;;;;;;;5051100;28;20556;-59
2023/07/10 01:55:59;;;;;;;25.90;16.05;;;;;;;;;;5040748;28;20029;-59
2023/07/10 01:58:25;;;;;;;24.75;16.67;;;;;;;;;;5034036;28;20143;-59
2023/07/10 02:00:50;;;;;;;23.38;16.58;;;;;;;;;;5034978;28;20033;-60
2023/07/10 02:03:15;;;;;;;21.50;16.05;;;;;;;;;;5052074;28;20394;-59
2023/07/10 02:05:41;;;;;;;23.20;15.80;;;;;;;;;;5050220;28;20041;-60
2023/07/10 02:08:06;;;;;;;22.80;15.50;;;;;;;;;;5034756;28;20037;-62
2023/07/10 02:10:32;;;;;;;20.58;15.60;;;;;;;;;;5034245;28;20053;-60
2023/07/10 02:12:57;;;;;;;20.35;15.63;;;;;;;;;;5041469;28;20029;-60
2023/07/10 02:15:23;;;;;;;22.10;15.25;;;;;;;;;;5040448;28;20032;-61
2023/07/10 02:17:48;;;;;;;25.02;15.55;;;;;;;;;;5054972;28;20043;-60
2023/07/10 02:20:13;;;;;;;21.63;15.43;;;;;;;;;;5032822;28;20037;-59
2023/07/10 02:22:39;;;;;;;23.10;15.35;;;;;;;;;;5052826;28;20029;-60
2023/07/10 02:25:05;;;;;;;19.25;14.63;;;;;;;;;;5052681;28;20032;-63
2023/07/10 02:27:30;;;;;;;21.08;15.77;;;;;;;;;;5039443;28;20041;-62
2023/07/10 02:29:55;;;;;;;23.30;15.20;;;;;;;;;;5042399;28;20038;-60
2023/07/10 02:32:21;;;;;;;19.60;14.75;;;;;;;;;;5053340;28;20104;-59
2023/07/10 02:34:46;;;;;;;22.40;14.25;;;;;;;;;;5049360;28;20128;-60
2023/07/10 02:37:11;;;;;;;18.02;14.57;;;;;;;;;;5032918;28;20075;-61
2023/07/10 02:39:37;;;;;;;18.38;14.75;;;;;;;;;;5034805;28;20041;-61
2023/07/10 02:42:02;;;;;;;21.38;15.30;;;;;;;;;;5033496;28;20155;-62
2023/07/10 02:44:30;;;;;;;21.60;15.27;;;;;;;;;;5033278;28;20033;-59
2023/07/10 02:46:55;;;;;;;22.08;14.88;;;;;;;;;;5047769;28;20162;-59
2023/07/10 02:49:20;;;;;;;20.60;15.60;;;;;;;;;;5047935;28;20499;-59
2023/07/10 02:51:46;;;;;;;22.83;15.30;;;;;;;;;;5039943;28;20061;-60
2023/07/10 02:54:13;;;;;;;21.35;16.02;;;;;;;;;;5045794;28;20041;-64
2023/07/10 02:56:39;;;;;;;25.33;16.23;;;;;;;;;;5056619;28;20066;-63
2023/07/10 02:59:04;;;;;;;22.00;15.88;;;;;;;;;;5041648;28;20033;-60
2023/07/10 03:01:30;;;;;;;22.00;16.95;;;;;;;;;;5046432;28;20532;-60
2023/07/10 03:03:55;;;;;;;23.05;16.83;;;;;;;;;;5033879;28;20037;-60
2023/07/10 03:06:23;;;;;;;23.58;16.42;;;;;;;;;;5034863;28;20021;-59
2023/07/10 03:08:48;;;;;;;22.92;16.60;;;;;;;;;;5044383;28;20094;-59
2023/07/10 03:11:15;;;;;;;21.85;16.77;;;;;;;;;;5032693;28;20033;-60
2023/07/10 03:13:40;;;;;;;23.08;17.23;;;;;;;;;;5033586;28;20037;-60
2023/07/10 03:16:08;;;;;;;21.60;16.35;;;;;;;;;;5043509;28;20075;-60
2023/07/10 03:18:34;;;;;;;24.23;17.10;;;;;;;;;;5045363;28;20043;-60
2023/07/10 03:20:59;;;;;;;25.77;18.27;;;;;;;;;;5032534;28;20409;-60
2023/07/10 03:23:25;;;;;;;25.10;17.73;;;;;;;;;;5034258;28;20037;-60
2023/07/10 03:25:50;;;;;;;24.05;16.55;;;;;;;;;;5033393;28;20110;-63
2023/07/10 03:28:16;;;;;;;23.63;17.02;;;;;;;;;;5044936;28;20033;-61
2023/07/10 03:30:41;;;;;;;26.38;16.98;;;;;;;;;;5033657;28;20425;-60
2023/07/10 03:33:07;;;;;;;22.65;16.42;;;;;;;;;;5049261;28;20032;-59
2023/07/10 03:35:32;;;;;;;22.75;16.70;;;;;;;;;;5045342;28;20239;-60
2023/07/10 03:37:58;;;;;;;24.52;16.95;;;;;;;;;;5033276;28;20037;-60
2023/07/10 03:40:23;;;;;;;23.20;16.60;;;;;;;;;;5039206;28;20390;-60
2023/07/10 03:42:49;;;;;;;22.75;16.70;;;;;;;;;;5039096;28;20414;-60
2023/07/10 03:45:14;;;;;;;22.83;16.80;;;;;;;;;;5032018;28;20045;-62
2023/07/10 03:47:39;;;;;;;25.40;17.25;;;;;;;;;;5032911;28;20435;-60
2023/07/10 03:50:05;;;;;;;23.35;16.42;;;;;;;;;;5032304;28;20038;-60
2023/07/10 03:52:31;;;;;;;21.92;16.15;;;;;;;;;;5038029;28;20090;-60
2023/07/10 03:54:56;;;;;;;23.00;16.23;;;;;;;;;;5045720;28;20110;-59
2023/07/10 03:57:22;;;;;;;21.35;15.95;;;;;;;;;;5035831;28;20059;-61
2023/07/10 03:59:47;;;;;;;23.85;16.40;;;;;;;;;;5044489;28;20036;-60
2023/07/10 04:02:12;;;;;;;24.33;15.85;;;;;;;;;;5034432;28;20135;-60
2023/07/10 04:04:38;;;;;;;27.52;17.38;;;;;;;;;;5048204;28;20039;-60
2023/07/10 04:07:03;;;;;;;24.95;17.40;;;;;;;;;;5052393;28;20036;-61
2023/07/10 04:09:29;;;;;;;24.15;17.80;;;;;;;;;;5033716;28;20029;-60
2023/07/10 04:11:54;;;;;;;25.15;17.50;;;;;;;;;;5053048;28;20032;-60
2023/07/10 04:14:19;;;;;;;23.88;16.50;;;;;;;;;;5034229;28;20033;-60
2023/07/10 04:16:52;;;;;;;24.92;16.48;;;;;;;;;;5063415;28;20039;-59
2023/07/10 04:19:18;;;;;;;21.60;15.40;;;;;;;;;;5042323;28;20094;-60
2023/07/10 04:21:43;;;;;;;20.05;14.27;;;;;;;;;;5038127;28;20465;-60
2023/07/10 04:24:09;;;;;;;19.15;14.02;;;;;;;;;;5035043;28;20497;-60
2023/07/10 04:26:35;;;;;;;20.13;15.18;;;;;;;;;;5030712;28;20037;-60
2023/07/10 04:29:03;;;;;;;21.85;14.30;;;;;;;;;;5031989;28;20038;-60
2023/07/10 04:31:29;;;;;;;25.63;15.55;;;;;;;;;;5044935;28;20034;-60
2023/07/10 04:33:56;;;;;;;21.70;15.65;;;;;;;;;;5039030;28;20473;-60
2023/07/10 04:36:21;;;;;;;24.35;16.42;;;;;;;;;;5048384;28;20044;-60
2023/07/10 04:38:48;;;;;;;25.55;16.05;;;;;;;;;;5052447;28;20378;-60
2023/07/10 04:41:17;;;;;;;27.42;16.58;;;;;;;;;;5036810;28;20120;-61
2023/07/10 04:43:43;;;;;;;24.25;17.73;;;;;;;;;;5032592;28;20528;-59
2023/07/10 04:46:10;;;;;;;25.77;17.40;;;;;;;;;;5036978;28;20037;-60
2023/07/10 04:48:35;;;;;;;25.70;17.60;;;;;;;;;;5050568;28;20032;-60
2023/07/10 04:51:03;;;;;;;26.25;18.15;;;;;;;;;;5052128;28;20033;-59
2023/07/10 04:53:30;;;;;;;29.13;18.60;;;;;;;;;;5051348;28;20033;-60
2023/07/10 04:55:56;;;;;;;30.27;19.05;;;;;;;;;;5054935;28;20041;-59
2023/07/10 04:58:25;;;;;;;25.73;18.85;;;;;;;;;;5059971;28;20028;-61
2023/07/10 05:00:55;;;;;;;27.15;17.80;;;;;;;;;;5051924;28;20032;-60
2023/07/10 05:03:21;;;;;;;30.15;18.00;;;;;;;;;;5045576;28;20389;-61
2023/07/10 05:05:57;;;;;;;24.10;17.38;;;;;;;;;;5035183;28;20090;-62
2023/07/10 05:08:24;;;;;;;23.52;16.35;;;;;;;;;;5050893;28;20029;-61
2023/07/10 05:10:50;;;;;;;24.75;17.40;;;;;;;;;;5050296;28;20037;-60
2023/07/10 05:13:19;;;;;;;25.10;16.88;;;;;;;;;;5051651;28;20496;-65
2023/07/10 05:15:45;;;;;;;23.90;15.68;;;;;;;;;;5046644;28;20037;-61
2023/07/10 05:18:11;;;;;;;24.08;15.63;;;;;;;;;;5051590;28;20040;-60
2023/07/10 05:20:38;;;;;;;23.23;15.88;;;;;;;;;;5050910;28;20029;-61
2023/07/10 05:23:04;;;;;;;21.98;14.63;;;;;;;;;;5051470;28;20033;-61
2023/07/10 05:25:29;;;;;;;21.70;14.57;;;;;;;;;;5050807;28;20462;-61
2023/07/10 05:27:55;;;;;;;22.10;14.77;;;;;;;;;;5051615;28;20385;-61
2023/07/10 05:30:20;;;;;;;19.42;13.15;;;;;;;;;;5047697;28;20059;-64
2023/07/10 05:32:45;;;;;;;17.10;12.35;;;;;;;;;;5068379;28;20458;-61
2023/07/10 05:35:11;;;;;;;19.02;12.65;;;;;;;;;;5075918;28;20024;-61
2023/07/10 05:37:36;;;;;;;20.40;12.32;;;;;;;;;;5054605;28;20064;-60
2023/07/10 05:40:02;;;;;;;17.17;10.60;;;;;;;;;;5049319;28;20125;-63
2023/07/10 05:42:27;;;;;;;14.80;9.68;;;;;;;;;;5050319;28;20057;-62
2023/07/10 05:44:53;;;;;;;14.98;9.73;;;;;;;;;;5055531;28;20055;-62
2023/07/10 05:47:18;;;;;;;12.98;9.23;;;;;;;;;;5053749;28;20032;-66
2023/07/10 05:49:43;;;;;;;11.80;9.00;;;;;;;;;;5053652;28;20111;-62
2023/07/10 05:52:09;;;;;;;15.90;8.52;;;;;;;;;;5049485;28;20036;-62
2023/07/10 05:54:34;;;;;;;15.38;8.30;;;;;;;;;;5052102;28;20535;-62
2023/07/10 05:57:00;;;;;;;13.65;7.50;;;;;;;;;;5055216;28;20040;-63
2023/07/10 05:59:25;;;;;;;12.63;6.97;;;;;;;;;;5047533;28;20041;-63
2023/07/10 06:01:51;;;;;;;9.90;6.95;;;;;;;;;;5044769;28;20047;-62
2023/07/10 06:04:16;;;;;;;9.27;6.60;;;;;;;;;;5053051;28;20040;-61
2023/07/10 06:06:41;;;;;;;12.23;7.25;;;;;;;;;;5043283;28;20060;-60
2023/07/10 06:09:07;;;;;;;11.73;7.03;;;;;;;;;;5049204;28;20031;-62
2023/07/10 06:11:32;;;;;;;12.63;7.28;;;;;;;;;;5044339;28;20051;-62
2023/07/10 06:13:58;;;;;;;10.05;7.22;;;;;;;;;;5034611;28;20037;-63
2023/07/10 06:16:24;;;;;;;12.77;7.18;;;;;;;;;;5046793;28;20560;-61
2023/07/10 06:18:49;;;;;;;12.15;7.03;;;;;;;;;;5044752;28;20021;-62
2023/07/10 06:21:14;;;;;;;13.52;7.10;;;;;;;;;;5038547;28;20091;-60
2023/07/10 06:23:40;;;;;;;9.90;6.93;;;;;;;;;;5053895;28;20025;-59
2023/07/10 06:26:05;;;;;;;9.57;6.13;;;;;;;;;;5049355;28;20086;-59
2023/07/10 06:28:32;;;;;;;9.13;5.78;;;;;;;;;;5054044;28;20065;-59
2023/07/10 06:31:06;;;;;;;10.93;5.32;;;;;;;;;;5055475;28;20031;-62
2023/07/10 06:33:33;;;;;;;8.70;5.00;;;;;;;;;;5054042;28;20037;-63
2023/07/10 06:35:59;;;;;;;8.02;4.68;;;;;;;;;;5054708;28;20458;-61
2023/07/10 06:38:25;;;;;;;9.93;4.45;;;;;;;;;;5053871;28;20492;-61
2023/07/10 06:40:51;;;;;;;6.82;4.30;;;;;;;;;;5054985;28;20033;-61
2023/07/10 06:43:18;;;;;;;8.70;4.93;;;;;;;;;;5051082;28;20515;-61
2023/07/10 06:45:44;;;;;;;8.75;4.30;;;;;;;;;;5066250;28;20032;-63
2023/07/10 06:48:10;;;;;;;7.55;3.83;;;;;;;;;;5036783;28;20052;-61
2023/07/10 06:50:35;;;;;;;9.48;3.83;;;;;;;;;;5036053;28;20029;-61
2023/07/10 06:53:01;;;;;;;8.30;4.28;;;;;;;;;;5054668;28;20424;-62
2023/07/10 06:55:27;;;;;;;10.45;4.53;;;;;;;;;;5052161;28;20043;-62
2023/07/10 06:57:52;;;;;;;6.78;4.10;;;;;;;;;;5054190;28;20087;-60
2023/07/10 07:00:18;;;;;;;7.47;4.22;;;;;;;;;;5063894;28;20030;-62
2023/07/10 07:02:44;;;;;;;7.40;4.63;;;;;;;;;;5059760;28;20029;-61
2023/07/10 07:05:10;;;;;;;8.90;4.60;;;;;;;;;;5054092;28;20121;-62
2023/07/10 07:07:37;;;;;;;10.23;5.30;;;;;;;;;;5053856;28;20065;-62
2023/07/10 07:10:04;;;;;;;9.77;5.35;;;;;;;;;;5053739;28;20037;-63
2023/07/10 07:12:29;;;;;;;9.98;5.38;;;;;;;;;;5046552;28;20053;-61
2023/07/10 07:14:55;;;;;;;10.52;5.22;;;;;;;;;;5034070;28;20072;-60
2023/07/10 07:17:20;;;;;;;10.38;5.20;;;;;;;;;;5047584;28;20025;-59
2023/07/10 07:19:46;;;;;;;9.52;5.88;;;;;;;;;;5052902;28;20033;-62
2023/07/10 07:22:13;;;;;;;7.60;4.97;;;;;;;;;;5052595;28;20036;-63
2023/07/10 07:24:39;;;;;;;10.13;4.80;;;;;;;;;;5035019;28;20623;-62
2023/07/10 07:27:04;;;;;;;13.23;5.47;;;;;;;;;;5053114;28;20069;-62
2023/07/10 07:29:30;;;;;;;8.38;5.30;;;;;;;;;;5072845;28;20036;-61
2023/07/10 07:31:55;;;;;;;9.55;4.97;;;;;;;;;;5066348;28;20060;-62
2023/07/10 07:34:21;;;;;;;9.38;4.40;;;;;;;;;;5053591;28;20032;-60
2023/07/10 07:36:50;;;;;;;7.95;4.18;;;;;;;;;;5052797;28;20435;-61
2023/07/10 07:39:17;;;;;;;6.90;3.97;;;;;;;;;;5053475;28;20067;-61
2023/07/10 07:41:43;;;;;;;7.10;4.35;;;;;;;;;;5051732;28;20047;-62
2023/07/10 07:44:08;;;;;;;8.00;3.90;;;;;;;;;;5053593;28;20037;-60
2023/07/10 07:46:34;;;;;;;8.77;3.78;;;;;;;;;;5048506;28;20041;-61
2023/07/10 07:48:59;;;;;;;5.57;3.80;;;;;;;;;;5053282;28;20028;-60
2023/07/10 07:51:25;;;;;;;10.13;4.28;;;;;;;;;;5052256;28;20033;-64
2023/07/10 07:54:04;;;;;;;7.30;4.22;;;;;;;;;;5054092;28;20069;-61
2023/07/10 07:56:30;;;;;;;7.30;4.10;;;;;;;;;;5070311;28;20035;-61
2023/07/10 07:58:55;;;;;;;7.50;3.90;;;;;;;;;;5052152;28;20028;-61
2023/07/10 08:01:20;;;;;;;6.18;3.40;;;;;;;;;;5053444;28;20037;-61
2023/07/10 08:03:46;;;;;;;7.13;3.20;;;;;;;;;;5051934;28;20037;-62
2023/07/10 08:06:11;;;;;;;6.88;2.80;;;;;;;;;;5053284;28;20064;-61
2023/07/10 08:08:37;;;;;;;5.57;2.63;;;;;;;;;;5051851;28;20033;-61
2023/07/10 08:11:02;;;;;;;4.93;2.75;;;;;;;;;;5057207;28;20040;-62
2023/07/10 08:13:27;;;;;;;4.75;2.42;;;;;;;;;;5056570;28;20037;-65
2023/07/10 08:15:53;;;;;;;6.22;2.70;;;;;;;;;;5052798;28;20466;-62
2023/07/10 08:18:18;;;;;;;5.85;2.95;;;;;;;;;;5039842;28;20087;-61
2023/07/10 08:20:44;;;;;;;6.20;3.47;;;;;;;;;;5031858;28;20128;-61
2023/07/10 08:23:09;;;;;;;5.10;2.58;;;;;;;;;;5049832;28;20161;-62
2023/07/10 08:25:34;;;;;;;6.57;2.50;;;;;;;;;;5070418;28;20039;-61
2023/07/10 08:28:00;;;;;;;6.10;2.60;;;;;;;;;;5047712;28;20051;-61
2023/07/10 08:30:27;;;;;;;8.70;2.92;;;;;;;;;;5071781;28;20036;-65
2023/07/10 08:32:52;;;;;;;6.40;2.78;;;;;;;;;;5062939;28;20037;-59
2023/07/10 08:35:18;;;;;;;6.90;2.60;;;;;;;;;;5032553;28;20378;-59
2023/07/10 08:37:43;;;;;;;5.28;2.20;;;;;;;;;;5050880;28;20078;-60
2023/07/10 08:40:23;;;;;;;4.93;2.22;;;;;;;;;;5051794;28;20074;-59
2023/07/10 08:42:49;;;;;;;5.05;2.63;;;;;;;;;;5047203;28;20330;-60
2023/07/10 08:45:30;;;;;;;4.32;2.42;;;;;;;;;;5051428;28;20037;-59
2023/07/10 08:48:04;;;;;;;6.35;2.70;;;;;;;;;;5062915;28;20044;-62
2023/07/10 08:50:31;;;;;;;6.57;2.65;;;;;;;;;;5048052;28;20040;-61
2023/07/10 08:53:05;;;;;;;7.57;2.65;;;;;;;;;;5050768;28;20108;-60
2023/07/10 08:55:56;;;;;;;6.22;2.70;;;;;;;;;;5046661;28;20025;-61
2023/07/10 08:58:25;;;;;;;6.10;2.83;;;;;;;;;;5052095;28;20112;-61
2023/07/10 09:00:56;;;;;;;6.95;2.92;;;;;;;;;;5051010;28;20175;-61
2023/07/10 09:03:21;;;;;;;;;;;;;;;;;;5052681;28;20076;-61
2023/07/10 09:05:50;;;;;;;5.25;2.70;;;;;;;;;;5049301;28;19921;-61
2023/07/10 09:08:17;;;;;;;5.85;2.80;;;;;;;;;;5034060;28;20033;-61
2023/07/10 09:10:49;;;;;;;9.50;3.10;;;;;;;;;;5050828;28;20033;-61
2023/07/10 09:13:31;;;;;;;6.78;3.00;;;;;;;;;;5052078;28;20033;-61
2023/07/10 09:15:57;;;;;;;4.68;2.80;;;;;;;;;;5051613;28;20083;-61
2023/07/10 09:18:23;;;;;;;6.90;2.80;;;;;;;;;;5051731;28;20029;-61
2023/07/10 09:20:59;;;;;;;8.75;3.17;;;;;;;;;;5046603;28;20025;-62
2023/07/10 09:23:33;;;;;;;6.25;2.80;;;;;;;;;;5031995;28;20466;-61
2023/07/10 09:26:11;;;;;;;9.30;2.78;;;;;;;;;;5031614;28;20038;-61
2023/07/10 09:28:39;;;;;;;7.60;3.00;;;;;;;;;;5031020;28;20083;-63
2023/07/10 09:31:08;;;;;;;4.95;2.50;;;;;;;;;;5031461;28;20029;-62
2023/07/10 09:33:49;;;;;;;6.38;2.60;;;;;;;;;;5030934;28;20116;-61
2023/07/10 09:36:19;;;;;;;4.22;2.20;;;;;;;;;;5043651;28;20036;-59
2023/07/10 09:38:47;;;;;;;8.82;2.58;;;;;;;;;;5030665;28;20406;-59
2023/07/10 09:41:19;;;;;;;5.97;2.78;;;;;;;;;;5039092;28;20049;-61
2023/07/10 09:44:04;;;;;;;5.90;2.53;;;;;;;;;;5062726;28;20056;-61
2023/07/10 09:46:36;;;;;;;7.25;2.40;;;;;;;;;;5066011;28;20053;-67
2023/07/10 09:49:12;;;;;;;7.85;2.10;;;;;;;;;;5065347;28;20082;-62
2023/07/10 09:51:53;;;;;;;5.78;2.20;;;;;;;;;;5069949;28;20488;-61
2023/07/10 09:54:18;;;;;;;4.43;2.22;;;;;;;;;;5060439;28;20175;-63
2023/07/10 09:56:47;;;;;;;5.32;2.60;;;;;;;;;;5039827;28;20537;-61
2023/07/10 09:59:30;;;;;;;4.72;2.08;;;;;;;;;;5047001;28;20040;-60
2023/07/10 10:01:55;;;;;;;5.20;2.30;;;;;;;;;;5050230;28;20037;-61
2023/07/10 10:04:26;;;;;;;4.22;1.85;;;;;;;;;;5051353;28;20033;-61
2023/07/10 10:07:00;;;;;;;5.38;1.98;;;;;;;;;;5050661;28;20489;-60
2023/07/10 10:09:28;;;;;;;4.10;2.00;;;;;;;;;;5055783;28;20047;-61
2023/07/10 10:12:21;;;;;;;4.95;2.17;;;;;;;;;;5055625;28;20418;-60
2023/07/10 10:14:53;;;;;;;4.97;2.10;;;;;;;;;;5049286;28;20040;-60
2023/07/10 10:17:21;;;;;;;4.93;2.10;;;;;;;;;;5050298;28;20075;-61
2023/07/10 10:19:53;;;;;;;3.88;2.00;;;;;;;;;;5073595;28;20079;-61
2023/07/10 10:22:23;;;;;;;3.67;1.92;;;;;;;;;;5064747;28;20065;-60
2023/07/10 10:24:48;;;;;;;3.17;2.00;;;;;;;;;;5053891;28;20033;-59
2023/07/10 10:27:25;;;;;;;5.70;2.22;;;;;;;;;;5055127;28;20370;-60
2023/07/10 10:29:53;;;;;;;5.43;2.20;;;;;;;;;;5054094;28;20115;-60
2023/07/10 10:32:37;;;;;;;5.68;1.75;;;;;;;;;;5053146;28;20060;-61
2023/07/10 10:35:20;;;;;;;4.55;2.00;;;;;;;;;;5055041;28;20082;-61
2023/07/10 10:38:19;;;;;;;3.90;1.70;;;;;;;;;;5053918;28;20037;-61
2023/07/10 10:41:03;;;;;;;5.65;1.77;;;;;;;;;;5053858;28;20035;-60
2023/07/10 10:43:32;;;;;;;4.50;1.75;;;;;;;;;;5052230;28;20374;-61
2023/07/10 10:46:12;;;;;;;5.03;1.88;;;;;;;;;;5058382;28;20029;-60
2023/07/10 10:49:15;;;;;;;5.05;2.00;;;;;;;;;;5069945;28;20215;-60
2023/07/10 10:52:11;;;;;;;6.22;2.00;;;;;;;;;;5053494;28;20035;-61
2023/07/10 10:54:52;;;;;;;4.85;2.10;;;;;;;;;;5051356;28;20037;-65
2023/07/10 10:57:36;;;;;;;;;;;;;;;;;;5054849;28;20047;-60
2023/07/10 11:00:11;;;;;;;3.92;1.77;;;;;;;;;;5049402;28;19963;-60
2023/07/10 11:02:43;;;;;;;5.03;1.80;;;;;;;;;;5053234;28;20048;-66
2023/07/10 11:05:16;;;;;;;6.13;1.92;;;;;;;;;;5041103;28;20401;-61
2023/07/10 11:07:45;;;;;;;4.07;1.70;;;;;;;;;;5033324;28;20029;-66
2023/07/10 11:10:27;;;;;;;5.22;2.00;;;;;;;;;;5035161;28;20030;-62
2023/07/10 11:12:53;;;;;;;4.63;1.90;;;;;;;;;;5031735;28;20127;-62
2023/07/10 11:15:22;;;;;;;5.60;1.88;;;;;;;;;;5065239;28;20036;-62
2023/07/10 11:17:52;;;;;;;4.50;1.90;;;;;;;;;;5072976;28;20488;-63
2023/07/10 11:20:18;;;;;;;3.55;1.80;;;;;;;;;;5073755;28;20032;-61
2023/07/10 11:22:52;;;;;;;4.82;1.52;;;;;;;;;;5072844;28;20043;-61
2023/07/10 11:25:32;;;;;;;5.13;1.77;;;;;;;;;;5072480;28;20419;-62
2023/07/10 11:28:01;;;;;;;3.60;1.75;;;;;;;;;;5054656;28;20087;-61
2023/07/10 11:30:33;;;;;;;5.20;1.60;;;;;;;;;;5051210;28;20405;-60
2023/07/10 11:33:16;;;;;;;4.13;1.80;;;;;;;;;;5049059;28;20269;-61
2023/07/10 11:36:36;;;;;;;3.72;1.80;;;;;;;;;;5033512;28;20116;-61
2023/07/10 11:39:09;;;;;;;5.95;1.95;;;;;;;;;;5030776;28;20060;-61
2023/07/10 11:41:39;;;;;;;3.88;1.80;;;;;;;;;;5035369;28;20379;-62
2023/07/10 11:44:32;;;;;;;5.00;1.70;;;;;;;;;;5057817;28;20131;-62
2023/07/10 11:46:57;;;;;;;4.95;1.50;;;;;;;;;;5052417;28;20619;-62
2023/07/10 11:49:42;;;;;;;3.97;1.65;;;;;;;;;;5052109;28;20033;-60
2023/07/10 11:52:13;;;;;;;3.80;1.60;;;;;;;;;;5054447;28;20116;-62
2023/07/10 11:54:40;;;;;;;5.72;1.70;;;;;;;;;;5053775;28;20063;-67
2023/07/10 11:57:09;;;;;;;6.40;1.90;;;;;;;;;;5049907;28;20041;-62
2023/07/10 11:59:44;;;;;;;3.95;1.80;;;;;;;;;;5048006;28;20033;-59
2023/07/10 12:02:38;;;;;;;7.32;1.98;;;;;;;;;;5052636;28;20480;-60
2023/07/10 12:05:26;;;;;;;4.10;1.80;;;;;;;;;;5032621;28;20029;-59
2023/07/10 12:08:09;;;;;;;5.28;1.83;;;;;;;;;;5031874;28;20025;-62
2023/07/10 12:10:45;;;;;;;6.95;1.90;;;;;;;;;;5058568;28;20107;-61
2023/07/10 12:13:27;;;;;;;2.80;1.48;;;;;;;;;;5074166;28;20028;-59
2023/07/10 12:15:54;;;;;;;4.18;1.80;;;;;;;;;;5052176;28;20109;-60
2023/07/10 12:18:32;;;;;;;6.28;1.85;;;;;;;;;;5052646;28;20033;-60
2023/07/10 12:21:00;;;;;;;4.85;1.63;;;;;;;;;;5046799;28;20603;-60
2023/07/10 12:23:26;;;;;;;3.13;1.60;;;;;;;;;;5031724;28;20044;-61
2023/07/10 12:25:54;;;;;;;6.20;1.80;;;;;;;;;;5030546;28;20030;-61
2023/07/10 12:28:24;;;;;;;3.40;1.40;;;;;;;;;;5040751;28;20037;-60
2023/07/10 12:30:52;;;;;;;4.00;1.70;;;;;;;;;;5055026;28;20028;-60
2023/07/10 12:33:39;;;;;;;4.10;1.92;;;;;;;;;;5052258;28;20036;-60
2023/07/10 12:36:26;;;;;;;4.85;1.63;;;;;;;;;;5051937;28;20049;-60
2023/07/10 12:38:56;;;;;;;4.82;1.95;;;;;;;;;;5061649;28;20074;-59
2023/07/10 12:41:22;;;;;;;2.78;1.60;;;;;;;;;;5072216;28;20097;-60
2023/07/10 12:43:52;;;;;;;5.25;1.83;;;;;;;;;;5071447;28;20044;-61
2023/07/10 12:46:23;;;;;;;6.00;1.80;;;;;;;;;;5072048;28;20037;-60
2023/07/10 12:48:52;;;;;;;4.72;1.90;;;;;;;;;;5058101;28;20520;-61
2023/07/10 12:51:31;;;;;;;4.55;1.75;;;;;;;;;;5051032;28;20108;-59
2023/07/10 12:54:00;;;;;;;6.03;2.00;;;;;;;;;;5051027;28;20067;-61
2023/07/10 12:56:30;;;;;;;5.60;2.00;;;;;;;;;;5052099;28;20025;-61
2023/07/10 12:58:59;;;;;;;6.50;2.00;;;;;;;;;;5050968;28;20116;-61
2023/07/10 13:01:27;;;;;;;6.72;2.00;;;;;;;;;;5046607;28;20033;-61
2023/07/10 13:04:05;;;;;;;7.45;1.88;;;;;;;;;;5045804;28;20512;-60
2023/07/10 13:06:32;;;;;;;4.95;1.90;;;;;;;;;;5050252;28;20489;-59
2023/07/10 13:09:01;;;;;;;5.60;1.75;;;;;;;;;;5039134;28;20044;-64
2023/07/10 13:11:27;;;;;;;4.10;1.93;;;;;;;;;;5051573;28;20064;-62
2023/07/10 13:13:54;;;;;;;4.78;1.70;;;;;;;;;;5050827;28;20063;-62
2023/07/10 13:16:25;;;;;;;5.22;1.80;;;;;;;;;;5051782;28;20358;-60
2023/07/10 13:18:51;;;;;;;5.03;1.70;;;;;;;;;;5050131;28;20032;-60
2023/07/10 13:21:20;;;;;;;4.80;1.83;;;;;;;;;;5051356;28;20037;-60
2023/07/10 13:23:46;;;;;;;5.13;2.15;;;;;;;;;;5030659;28;20034;-62
2023/07/10 13:26:23;;;;;;;5.55;1.77;;;;;;;;;;5046785;28;20040;-61
2023/07/10 13:28:52;;;;;;;6.00;1.85;;;;;;;;;;5030624;28;20112;-62
2023/07/10 13:31:20;;;;;;;5.18;1.63;;;;;;;;;;5031300;28;20409;-61
2023/07/10 13:33:46;;;;;;;4.30;1.70;;;;;;;;;;5031006;28;20065;-61
2023/07/10 13:36:18;;;;;;;4.05;1.70;;;;;;;;;;5031670;28;20065;-60
2023/07/10 13:38:44;;;;;;;5.30;1.60;;;;;;;;;;5049449;28;20033;-65
2023/07/10 13:41:17;;;;;;;5.22;1.73;;;;;;;;;;5051471;28;20068;-60
2023/07/10 13:43:42;;;;;;;6.65;2.10;;;;;;;;;;5050886;28;20078;-65
2023/07/10 13:46:21;;;;;;;5.45;1.88;;;;;;;;;;5050830;28;20048;-61
2023/07/10 13:48:49;;;;;;;6.45;2.00;;;;;;;;;;5064429;28;20171;-67
2023/07/10 13:51:15;;;;;;;6.88;1.92;;;;;;;;;;5070424;28;20032;-60
2023/07/10 13:53:42;;;;;;;5.75;1.90;;;;;;;;;;5073282;28;20062;-61
2023/07/10 13:56:13;;;;;;;4.75;1.77;;;;;;;;;;5066767;28;20541;-61
2023/07/10 13:58:39;;;;;;;3.75;1.70;;;;;;;;;;5055184;28;20397;-60
2023/07/10 14:01:04;;;;;;;6.47;1.98;;;;;;;;;;5054605;28;20029;-61
2023/07/10 14:03:30;;;;;;;5.15;1.77;;;;;;;;;;5037386;28;20082;-59
2023/07/10 14:05:56;;;;;;;4.78;1.70;;;;;;;;;;5054112;28;20037;-60
2023/07/10 14:08:29;;;;;;;4.13;1.80;;;;;;;;;;5052273;28;20032;-62
2023/07/10 14:10:57;;;;;;;5.35;1.80;;;;;;;;;;5059951;28;20029;-59
2023/07/10 14:13:23;;;;;;;5.65;1.90;;;;;;;;;;5055510;28;20025;-62
2023/07/10 14:15:58;;;;;;;5.95;1.85;;;;;;;;;;5033247;28;20493;-62
2023/07/10 14:18:26;;;;;;;5.45;2.10;;;;;;;;;;5044387;28;20029;-60
2023/07/10 14:20:52;;;;;;;4.32;1.67;;;;;;;;;;5062857;28;20036;-61
2023/07/10 14:23:23;;;;;;;4.68;1.77;;;;;;;;;;5055174;28;20025;-62
2023/07/10 14:25:50;;;;;;;5.47;1.98;;;;;;;;;;5054032;28;20083;-64
2023/07/10 14:28:18;;;;;;;5.97;2.08;;;;;;;;;;5055219;28;20099;-60
2023/07/10 14:30:44;;;;;;;4.57;2.00;;;;;;;;;;5052215;28;20068;-61
2023/07/10 14:33:11;;;;;;;4.95;1.75;;;;;;;;;;5050413;28;20025;-62
2023/07/10 14:35:38;;;;;;;4.78;1.88;;;;;;;;;;5039370;28;20033;-62
2023/07/10 14:38:18;;;;;;;3.70;1.85;;;;;;;;;;5051019;28;20040;-60
2023/07/10 14:40:44;;;;;;;5.53;1.70;;;;;;;;;;5034624;28;20060;-60
2023/07/10 14:43:10;;;;;;;5.50;1.88;;;;;;;;;;5047184;28;20049;-61
2023/07/10 14:45:38;;;;;;;5.55;1.92;;;;;;;;;;5036900;28;20045;-60